»·PEaware :: PSV800 LLBG-LGAV

PSV800 :: LLBG-LGAV

FLIGHT INFORMATION

Flight Status: Arrived
Operator:
Power Set Virtual (website)
More flights by this operator :: More flights under this callsign
Pilot: Scott L. (17677)
Aircraft: CESSNA 510 CITATION MUSTANG
(C510)
More flights by this aircraft type
Origin: LLBG Ben Gurion
Israel
Destination: LGAV Eleftherios Venizelos Intl
Greece
More flights between these airports :: More routes between these airports
Route: DAFNA W13 VELOX M42 GENOS PEDER EVENO UM601 RDS UL995 VARIX VARI2B
File this flight plan on PilotEdge
Remarks:
Altitude:
(Current/Filed)
34,000ft
Speed:
(Current/Filed)
400kts
Departed: 13-Apr-20 11:48 AM
Arrived: 13-Apr-20 01:35 PM
Distance/Time
Traveled:
5265nm/1:47
Distance/Time
To Go:
Arrived

Flight Plot

Page will automatically refresh every two minutes.

Flight plan parsing failed; only flown route is shown


Map Options




Map Legend


Flown Route
Filed Route
Departure Airport
Arrival Airport
Navaid (VOR, NDB)
Fix

Horizontal Profiles

Position Reports

Time Latitude Longitude Heading Altitude Ground
Speed
13-Apr-20 11:46 32.479795 34.305043 309 25870ft 290kts
13-Apr-20 11:47 32.535760 34.239597 312 28351ft 279kts
13-Apr-20 11:48 32.612592 34.222511 347 30845ft 279kts
13-Apr-20 11:49 32.681700 34.197992 294 32598ft 249kts
13-Apr-20 11:50 32.723186 34.128888 300 34096ft 264kts
13-Apr-20 11:51 32.772480 34.052207 301 34113ft 318kts
13-Apr-20 11:52 32.829679 33.964003 302 34108ft 351kts
13-Apr-20 11:53 32.891292 33.868774 302 34103ft 370kts
13-Apr-20 11:54 32.955077 33.769870 302 34102ft 379kts
13-Apr-20 11:55 33.019617 33.668596 304 34099ft 384kts
13-Apr-20 11:56 33.084883 33.566485 306 34098ft 388kts
13-Apr-20 11:57 33.151293 33.462979 307 34101ft 394kts
13-Apr-20 11:58 33.218321 33.358272 307 34101ft 397kts
13-Apr-20 11:59 33.285761 33.252248 306 34102ft 399kts
13-Apr-20 12:00 33.353653 33.145067 306 34099ft 400kts
13-Apr-20 12:01 33.421107 33.037964 307 34103ft 400kts
13-Apr-20 12:02 33.488556 32.930494 308 34101ft 400kts
13-Apr-20 12:03 33.556058 32.823191 308 34103ft 401kts
13-Apr-20 12:04 33.623572 32.715683 308 34101ft 402kts
13-Apr-20 12:05 33.691281 32.607266 308 34102ft 403kts
13-Apr-20 12:06 33.756477 32.502550 308 34115ft 403kts
13-Apr-20 12:08 33.825763 32.390863 308 34124ft 403kts
13-Apr-20 12:09 33.893440 32.281487 308 34127ft 403kts
13-Apr-20 12:10 33.960837 32.172180 308 34126ft 403kts
13-Apr-20 12:11 34.027914 32.063066 308 34126ft 403kts
13-Apr-20 12:12 34.094883 31.953886 308 34126ft 403kts
13-Apr-20 12:13 34.162002 31.844025 308 34129ft 403kts
13-Apr-20 12:14 34.229088 31.733935 308 34129ft 404kts
13-Apr-20 12:15 34.295821 31.624057 308 34128ft 404kts
13-Apr-20 12:16 34.362730 31.513560 308 34127ft 404kts
13-Apr-20 12:17 34.429289 31.403325 308 34128ft 404kts
13-Apr-20 12:18 34.495781 31.292845 307 34127ft 404kts
13-Apr-20 12:19 34.562077 31.182327 307 34127ft 404kts
13-Apr-20 12:20 34.628289 31.071382 308 34129ft 402kts
13-Apr-20 12:21 34.694042 30.961069 309 34126ft 400kts
13-Apr-20 12:22 34.759431 30.851230 309 34125ft 397kts
13-Apr-20 12:23 34.824197 30.742060 309 34124ft 396kts
13-Apr-20 12:24 34.888928 30.632523 309 34124ft 396kts
13-Apr-20 12:25 34.953644 30.522846 308 34124ft 394kts
13-Apr-20 12:26 35.017510 30.414143 308 34123ft 391kts
13-Apr-20 12:26 35.070379 30.323762 307 34124ft 389kts
13-Apr-20 12:28 35.143058 30.199104 307 34131ft 389kts
13-Apr-20 12:29 35.205946 30.090989 307 34130ft 389kts
13-Apr-20 12:29 35.258196 30.000942 307 34130ft 389kts
13-Apr-20 12:30 35.318203 29.890796 305 34129ft 389kts
13-Apr-20 12:32 35.387764 29.760764 305 34128ft 389kts
13-Apr-20 12:33 35.447345 29.648966 305 34127ft 389kts
13-Apr-20 12:33 35.496878 29.555700 305 34127ft 389kts
13-Apr-20 12:34 35.555986 29.444183 305 34126ft 389kts
13-Apr-20 12:36 35.624965 29.313459 305 34128ft 389kts
13-Apr-20 12:36 35.674023 29.220243 305 34127ft 389kts
13-Apr-20 12:37 35.733150 29.107555 305 34127ft 389kts
13-Apr-20 12:38 35.791888 28.995258 305 34126ft 389kts
13-Apr-20 12:39 35.850344 28.883179 304 34125ft 387kts
13-Apr-20 12:40 35.908385 28.771513 304 34124ft 384kts
13-Apr-20 12:41 35.965820 28.660478 304 34123ft 382kts
13-Apr-20 12:42 36.023019 28.549626 304 34122ft 381kts
13-Apr-20 12:43 36.080141 28.438598 304 34121ft 380kts
13-Apr-20 12:44 36.112413 28.375700 304 34128ft 380kts
13-Apr-20 12:45 36.142139 28.317649 304 34133ft 381kts
13-Apr-20 12:46 36.198880 28.206640 304 34131ft 382kts
13-Apr-20 12:47 36.255651 28.095191 304 34130ft 382kts
13-Apr-20 12:48 36.312258 27.983696 304 34129ft 382kts
13-Apr-20 12:49 36.368998 27.871573 303 34128ft 382kts
13-Apr-20 12:50 36.425342 27.759860 303 34127ft 382kts
13-Apr-20 12:51 36.481854 27.647427 304 34127ft 382kts
13-Apr-20 12:52 36.538163 27.535061 303 34126ft 381kts
13-Apr-20 12:53 36.594391 27.422437 304 34125ft 381kts
13-Apr-20 12:54 36.650267 27.310139 303 34128ft 381kts
13-Apr-20 12:55 36.706257 27.197289 303 34127ft 382kts
13-Apr-20 12:56 36.762075 27.084394 303 34126ft 382kts
13-Apr-20 12:57 36.819221 26.968475 303 32797ft 406kts
13-Apr-20 12:58 36.879107 26.846531 303 30781ft 414kts
13-Apr-20 12:59 36.939667 26.722687 303 28754ft 417kts
13-Apr-20 13:00 36.999859 26.599299 302 27432ft 411kts
13-Apr-20 13:01 37.059055 26.477315 302 26412ft 405kts
13-Apr-20 13:02 37.116041 26.359493 302 24674ft 376kts
13-Apr-20 13:03 37.168461 26.250733 301 22278ft 358kts
13-Apr-20 13:04 37.219509 26.144516 301 19872ft 351kts
13-Apr-20 13:05 37.269742 26.039658 301 17471ft 349kts
13-Apr-20 13:06 37.319760 25.934911 301 15060ft 347kts
13-Apr-20 13:07 37.368344 25.832830 301 12848ft 332kts
13-Apr-20 13:08 37.414516 25.735354 301 11020ft 319kts
13-Apr-20 13:09 37.459792 25.639588 301 9808ft 303kts
13-Apr-20 13:10 37.502419 25.549430 301 8587ft 293kts
13-Apr-20 13:11 37.544124 25.460914 301 7378ft 292kts
13-Apr-20 13:12 37.585751 25.372185 301 6192ft 291kts
13-Apr-20 13:13 37.625296 25.287621 300 6154ft 271kts
13-Apr-20 13:14 37.663422 25.205951 300 6155ft 267kts
13-Apr-20 13:15 37.701080 25.125082 300 6155ft 266kts
13-Apr-20 13:16 37.738536 25.044452 300 6155ft 266kts
13-Apr-20 13:17 37.776336 24.962878 301 6155ft 265kts
13-Apr-20 13:18 37.813846 24.881735 301 6154ft 265kts
13-Apr-20 13:19 37.851252 24.800612 301 6154ft 265kts
13-Apr-20 13:20 37.888691 24.719209 301 6154ft 265kts
13-Apr-20 13:21 37.926027 24.638034 300 6154ft 265kts
13-Apr-20 13:22 37.963121 24.557112 299 6154ft 264kts
13-Apr-20 13:23 38.000023 24.476162 299 6154ft 264kts
13-Apr-20 13:24 38.036860 24.395091 299 6154ft 264kts
13-Apr-20 13:25 38.073067 24.314389 297 6150ft 247kts
13-Apr-20 13:26 38.103063 24.245442 297 5195ft 206kts
13-Apr-20 13:27 38.129810 24.183304 297 4348ft 194kts
13-Apr-20 13:28 38.117277 24.129502 220 4342ft 178kts
13-Apr-20 13:29 38.072942 24.084277 217 2712ft 220kts
13-Apr-20 13:30 38.025387 24.039038 216 2048ft 194kts
13-Apr-20 13:31 37.988162 24.003988 216 1242ft 120kts
13-Apr-20 13:32 37.964847 23.982062 216 688ft 97kts
13-Apr-20 13:33 37.943943 23.962665 217 279ft 78kts
13-Apr-20 13:34 37.943470 23.960243 9 281ft 15kts
13-Apr-20 13:35 37.948934 23.964565 35 298ft 31kts
13-Apr-20 13:36 37.953747 23.969187 47 326ft 0kts
13-Apr-20 13:37 37.953747 23.969187 47 326ft 0kts
13-Apr-20 13:38 37.953747 23.969187 47 326ft 0kts
13-Apr-20 13:39 49.894215 -97.233879 33 762ft 0kts
13-Apr-20 13:40 49.894215 -97.233879 33 762ft 0kts
13-Apr-20 13:41 49.894215 -97.233879 33 762ft 0kts
13-Apr-20 13:42 49.894215 -97.233879 33 762ft 0kts

Navigation Log

Ident Type
Flight plan parsing failed, navigation log unavailable